sensor_id;sensor_type;location;lat;lon;timestamp;temperature;humidity
16627;DHT22;8427;52.204;7.202;2023-06-22T00:00:33;19.00;80.10
16627;DHT22;8427;52.204;7.202;2023-06-22T00:03:00;18.80;80.50
16627;DHT22;8427;52.204;7.202;2023-06-22T00:05:29;18.80;80.60
16627;DHT22;8427;52.204;7.202;2023-06-22T00:53:52;18.20;84.00
16627;DHT22;8427;52.204;7.202;2023-06-22T00:56:20;18.10;84.20
16627;DHT22;8427;52.204;7.202;2023-06-22T00:58:51;18.20;84.40
16627;DHT22;8427;52.204;7.202;2023-06-22T01:01:20;18.10;84.40
16627;DHT22;8427;52.204;7.202;2023-06-22T01:04:18;18.20;84.40
16627;DHT22;8427;52.204;7.202;2023-06-22T01:06:54;18.20;84.40
16627;DHT22;8427;52.204;7.202;2023-06-22T01:09:32;18.20;84.40
16627;DHT22;8427;52.204;7.202;2023-06-22T01:12:04;18.20;84.40
16627;DHT22;8427;52.204;7.202;2023-06-22T01:14:37;18.20;84.30
16627;DHT22;8427;52.204;7.202;2023-06-22T01:17:08;18.20;84.20
16627;DHT22;8427;52.204;7.202;2023-06-22T01:19:43;18.10;84.30
16627;DHT22;8427;52.204;7.202;2023-06-22T01:22:16;18.10;84.40
16627;DHT22;8427;52.204;7.202;2023-06-22T01:24:55;18.10;84.40
16627;DHT22;8427;52.204;7.202;2023-06-22T01:27:33;18.10;84.50
16627;DHT22;8427;52.204;7.202;2023-06-22T01:30:19;18.00;84.60
16627;DHT22;8427;52.204;7.202;2023-06-22T01:32:48;18.00;84.60
16627;DHT22;8427;52.204;7.202;2023-06-22T01:35:18;18.00;84.80
16627;DHT22;8427;52.204;7.202;2023-06-22T01:37:47;18.00;84.80
16627;DHT22;8427;52.204;7.202;2023-06-22T01:40:15;18.00;84.80
16627;DHT22;8427;52.204;7.202;2023-06-22T01:42:44;17.90;84.90
16627;DHT22;8427;52.204;7.202;2023-06-22T01:45:13;17.90;85.00
16627;DHT22;8427;52.204;7.202;2023-06-22T01:47:42;17.80;84.90
16627;DHT22;8427;52.204;7.202;2023-06-22T01:50:11;17.80;85.10
16627;DHT22;8427;52.204;7.202;2023-06-22T01:52:40;17.90;85.00
16627;DHT22;8427;52.204;7.202;2023-06-22T01:55:08;17.80;85.30
16627;DHT22;8427;52.204;7.202;2023-06-22T01:57:36;17.70;85.50
16627;DHT22;8427;52.204;7.202;2023-06-22T02:00:09;17.70;85.50
16627;DHT22;8427;52.204;7.202;2023-06-22T02:02:42;17.80;85.70
16627;DHT22;8427;52.204;7.202;2023-06-22T02:05:12;17.70;85.60
16627;DHT22;8427;52.204;7.202;2023-06-22T02:07:47;17.70;85.60
16627;DHT22;8427;52.204;7.202;2023-06-22T02:10:18;17.60;85.60
16627;DHT22;8427;52.204;7.202;2023-06-22T02:12:47;17.80;85.70
16627;DHT22;8427;52.204;7.202;2023-06-22T02:15:16;17.70;85.70
16627;DHT22;8427;52.204;7.202;2023-06-22T02:17:46;17.70;85.60
16627;DHT22;8427;52.204;7.202;2023-06-22T02:20:15;17.70;85.40
16627;DHT22;8427;52.204;7.202;2023-06-22T02:22:43;17.80;85.60
16627;DHT22;8427;52.204;7.202;2023-06-22T02:28:22;17.80;85.60
16627;DHT22;8427;52.204;7.202;2023-06-22T02:30:50;17.80;85.70
16627;DHT22;8427;52.204;7.202;2023-06-22T02:33:20;17.80;85.70
16627;DHT22;8427;52.204;7.202;2023-06-22T02:35:48;17.60;85.70
16627;DHT22;8427;52.204;7.202;2023-06-22T02:38:16;17.60;85.50
16627;DHT22;8427;52.204;7.202;2023-06-22T02:40:44;17.60;85.60
16627;DHT22;8427;52.204;7.202;2023-06-22T02:43:12;17.70;85.60
16627;DHT22;8427;52.204;7.202;2023-06-22T02:45:40;17.60;85.60
16627;DHT22;8427;52.204;7.202;2023-06-22T02:48:08;17.60;85.50
16627;DHT22;8427;52.204;7.202;2023-06-22T02:50:38;17.60;85.50
16627;DHT22;8427;52.204;7.202;2023-06-22T02:53:06;17.70;85.40
16627;DHT22;8427;52.204;7.202;2023-06-22T02:55:49;17.70;85.60
16627;DHT22;8427;52.204;7.202;2023-06-22T02:58:17;17.50;85.60
16627;DHT22;8427;52.204;7.202;2023-06-22T03:00:45;17.60;85.80
16627;DHT22;8427;52.204;7.202;2023-06-22T03:03:13;17.50;85.70
16627;DHT22;8427;52.204;7.202;2023-06-22T03:08:59;17.50;85.80
16627;DHT22;8427;52.204;7.202;2023-06-22T03:11:28;17.50;85.70
16627;DHT22;8427;52.204;7.202;2023-06-22T03:13:56;17.50;85.60
16627;DHT22;8427;52.204;7.202;2023-06-22T03:16:24;17.50;85.50
16627;DHT22;8427;52.204;7.202;2023-06-22T03:18:52;17.50;85.70
16627;DHT22;8427;52.204;7.202;2023-06-22T03:21:22;17.50;85.70
16627;DHT22;8427;52.204;7.202;2023-06-22T03:23:50;17.60;85.90
16627;DHT22;8427;52.204;7.202;2023-06-22T03:26:19;17.50;85.90
16627;DHT22;8427;52.204;7.202;2023-06-22T03:28:47;17.50;85.90
16627;DHT22;8427;52.204;7.202;2023-06-22T03:31:16;17.50;86.10
16627;DHT22;8427;52.204;7.202;2023-06-22T03:33:48;17.50;86.00
16627;DHT22;8427;52.204;7.202;2023-06-22T03:36:17;17.50;85.80
16627;DHT22;8427;52.204;7.202;2023-06-22T03:38:46;17.50;85.90
16627;DHT22;8427;52.204;7.202;2023-06-22T03:41:15;17.60;85.90
16627;DHT22;8427;52.204;7.202;2023-06-22T03:43:44;17.60;85.80
16627;DHT22;8427;52.204;7.202;2023-06-22T03:46:12;17.50;85.60
16627;DHT22;8427;52.204;7.202;2023-06-22T03:48:40;17.50;85.70
16627;DHT22;8427;52.204;7.202;2023-06-22T03:51:08;17.60;85.70
16627;DHT22;8427;52.204;7.202;2023-06-22T03:53:36;17.60;85.70
16627;DHT22;8427;52.204;7.202;2023-06-22T03:56:04;17.60;85.60
16627;DHT22;8427;52.204;7.202;2023-06-22T03:58:32;17.60;85.80
16627;DHT22;8427;52.204;7.202;2023-06-22T04:01:04;17.70;85.60
16627;DHT22;8427;52.204;7.202;2023-06-22T04:03:33;17.70;85.50
16627;DHT22;8427;52.204;7.202;2023-06-22T04:06:01;17.70;85.60
16627;DHT22;8427;52.204;7.202;2023-06-22T04:08:29;17.80;85.30
16627;DHT22;8427;52.204;7.202;2023-06-22T04:10:57;17.80;85.40
16627;DHT22;8427;52.204;7.202;2023-06-22T04:13:25;17.90;85.40
16627;DHT22;8427;52.204;7.202;2023-06-22T04:15:53;18.00;85.20
16627;DHT22;8427;52.204;7.202;2023-06-22T04:18:23;18.10;85.20
16627;DHT22;8427;52.204;7.202;2023-06-22T04:20:51;18.10;85.00
16627;DHT22;8427;52.204;7.202;2023-06-22T04:23:19;18.10;84.60
16627;DHT22;8427;52.204;7.202;2023-06-22T04:25:47;18.20;84.10
16627;DHT22;8427;52.204;7.202;2023-06-22T04:28:15;18.30;84.30
16627;DHT22;8427;52.204;7.202;2023-06-22T04:30:43;18.40;83.80
16627;DHT22;8427;52.204;7.202;2023-06-22T04:33:14;18.50;83.90
16627;DHT22;8427;52.204;7.202;2023-06-22T04:35:45;18.50;83.30
16627;DHT22;8427;52.204;7.202;2023-06-22T04:38:13;18.60;83.30
16627;DHT22;8427;52.204;7.202;2023-06-22T04:40:41;18.70;82.10
16627;DHT22;8427;52.204;7.202;2023-06-22T04:43:09;18.80;82.20
16627;DHT22;8427;52.204;7.202;2023-06-22T04:45:37;18.90;81.10
16627;DHT22;8427;52.204;7.202;2023-06-22T04:48:06;19.20;80.80
16627;DHT22;8427;52.204;7.202;2023-06-22T04:50:35;19.30;79.30
16627;DHT22;8427;52.204;7.202;2023-06-22T04:53:07;19.50;79.40
16627;DHT22;8427;52.204;7.202;2023-06-22T04:55:36;19.60;78.80
16627;DHT22;8427;52.204;7.202;2023-06-22T04:58:08;19.60;78.50
16627;DHT22;8427;52.204;7.202;2023-06-22T05:00:39;19.60;78.60
16627;DHT22;8427;52.204;7.202;2023-06-22T05:03:07;19.60;77.70
16627;DHT22;8427;52.204;7.202;2023-06-22T05:05:44;19.50;78.80
16627;DHT22;8427;52.204;7.202;2023-06-22T05:08:13;19.50;78.00
16627;DHT22;8427;52.204;7.202;2023-06-22T05:10:42;19.50;78.70
16627;DHT22;8427;52.204;7.202;2023-06-22T05:13:31;19.50;78.80
16627;DHT22;8427;52.204;7.202;2023-06-22T05:15:59;19.50;78.70
16627;DHT22;8427;52.204;7.202;2023-06-22T05:18:29;19.30;78.60
16627;DHT22;8427;52.204;7.202;2023-06-22T05:20:58;19.40;78.80
16627;DHT22;8427;52.204;7.202;2023-06-22T05:23:28;19.50;77.60
16627;DHT22;8427;52.204;7.202;2023-06-22T05:25:56;19.50;78.60
16627;DHT22;8427;52.204;7.202;2023-06-22T05:28:25;19.70;78.80
16627;DHT22;8427;52.204;7.202;2023-06-22T05:30:53;19.70;77.30
16627;DHT22;8427;52.204;7.202;2023-06-22T05:33:21;19.90;77.30
16627;DHT22;8427;52.204;7.202;2023-06-22T05:35:49;20.00;75.60
16627;DHT22;8427;52.204;7.202;2023-06-22T05:38:17;20.10;76.20
16627;DHT22;8427;52.204;7.202;2023-06-22T05:40:46;20.30;75.20
16627;DHT22;8427;52.204;7.202;2023-06-22T05:43:14;20.50;74.20
16627;DHT22;8427;52.204;7.202;2023-06-22T05:45:42;20.70;74.30
16627;DHT22;8427;52.204;7.202;2023-06-22T05:48:10;20.70;73.00
16627;DHT22;8427;52.204;7.202;2023-06-22T05:50:38;20.80;72.90
16627;DHT22;8427;52.204;7.202;2023-06-22T05:53:07;20.90;73.00
16627;DHT22;8427;52.204;7.202;2023-06-22T05:55:35;21.00;71.40
16627;DHT22;8427;52.204;7.202;2023-06-22T05:58:04;21.00;71.10
16627;DHT22;8427;52.204;7.202;2023-06-22T06:00:32;21.20;72.40
16627;DHT22;8427;52.204;7.202;2023-06-22T06:03:01;21.20;71.80
16627;DHT22;8427;52.204;7.202;2023-06-22T06:05:31;21.40;70.30
16627;DHT22;8427;52.204;7.202;2023-06-22T06:07:59;21.50;71.30
16627;DHT22;8427;52.204;7.202;2023-06-22T06:10:27;21.60;70.10
16627;DHT22;8427;52.204;7.202;2023-06-22T06:12:57;21.70;70.50
16627;DHT22;8427;52.204;7.202;2023-06-22T06:15:26;21.50;68.20
16627;DHT22;8427;52.204;7.202;2023-06-22T06:17:54;21.50;68.80
16627;DHT22;8427;52.204;7.202;2023-06-22T06:20:23;21.60;68.10
16627;DHT22;8427;52.204;7.202;2023-06-22T06:22:51;21.60;68.50
16627;DHT22;8427;52.204;7.202;2023-06-22T06:25:19;21.70;68.40
16627;DHT22;8427;52.204;7.202;2023-06-22T06:27:50;21.80;67.40
16627;DHT22;8427;52.204;7.202;2023-06-22T06:30:19;21.90;68.60
16627;DHT22;8427;52.204;7.202;2023-06-22T06:32:49;22.10;67.10
16627;DHT22;8427;52.204;7.202;2023-06-22T06:35:17;22.20;69.50
16627;DHT22;8427;52.204;7.202;2023-06-22T06:37:47;22.10;66.30
16627;DHT22;8427;52.204;7.202;2023-06-22T06:40:17;22.00;65.80
16627;DHT22;8427;52.204;7.202;2023-06-22T06:42:47;21.90;67.20
16627;DHT22;8427;52.204;7.202;2023-06-22T06:45:17;22.00;66.60
16627;DHT22;8427;52.204;7.202;2023-06-22T06:47:48;22.00;66.50
16627;DHT22;8427;52.204;7.202;2023-06-22T06:50:17;22.00;67.00
16627;DHT22;8427;52.204;7.202;2023-06-22T06:52:45;22.10;67.40
16627;DHT22;8427;52.204;7.202;2023-06-22T06:55:13;22.10;67.10
16627;DHT22;8427;52.204;7.202;2023-06-22T06:57:42;22.20;69.60
16627;DHT22;8427;52.204;7.202;2023-06-22T07:00:11;22.30;66.10
16627;DHT22;8427;52.204;7.202;2023-06-22T07:02:42;22.40;65.40
16627;DHT22;8427;52.204;7.202;2023-06-22T07:05:12;22.50;65.80
16627;DHT22;8427;52.204;7.202;2023-06-22T07:07:40;22.60;66.60
16627;DHT22;8427;52.204;7.202;2023-06-22T07:10:10;22.70;67.10
16627;DHT22;8427;52.204;7.202;2023-06-22T07:12:39;22.80;65.10
16627;DHT22;8427;52.204;7.202;2023-06-22T07:15:08;22.60;64.80
16627;DHT22;8427;52.204;7.202;2023-06-22T07:17:37;22.70;65.20
16627;DHT22;8427;52.204;7.202;2023-06-22T07:20:07;22.90;68.60
16627;DHT22;8427;52.204;7.202;2023-06-22T07:22:38;23.10;64.20
16627;DHT22;8427;52.204;7.202;2023-06-22T07:25:07;23.10;64.10
16627;DHT22;8427;52.204;7.202;2023-06-22T07:27:37;23.40;63.70
16627;DHT22;8427;52.204;7.202;2023-06-22T07:30:07;23.70;64.60
16627;DHT22;8427;52.204;7.202;2023-06-22T07:32:35;24.10;65.70
16627;DHT22;8427;52.204;7.202;2023-06-22T07:35:04;24.40;63.60
16627;DHT22;8427;52.204;7.202;2023-06-22T07:37:33;24.70;60.90
16627;DHT22;8427;52.204;7.202;2023-06-22T07:40:04;24.90;60.70
16627;DHT22;8427;52.204;7.202;2023-06-22T07:42:33;25.00;58.60
16627;DHT22;8427;52.204;7.202;2023-06-22T07:45:02;25.10;59.30
16627;DHT22;8427;52.204;7.202;2023-06-22T07:47:30;25.30;58.60
16627;DHT22;8427;52.204;7.202;2023-06-22T07:50:02;25.30;59.20
16627;DHT22;8427;52.204;7.202;2023-06-22T07:52:31;25.20;58.00
16627;DHT22;8427;52.204;7.202;2023-06-22T07:54:59;25.20;58.50
16627;DHT22;8427;52.204;7.202;2023-06-22T07:57:28;25.10;57.90
16627;DHT22;8427;52.204;7.202;2023-06-22T08:00:02;25.00;58.30
16627;DHT22;8427;52.204;7.202;2023-06-22T08:02:38;24.80;58.30
16627;DHT22;8427;52.204;7.202;2023-06-22T08:05:06;24.60;58.80
16627;DHT22;8427;52.204;7.202;2023-06-22T08:07:48;24.60;59.80
16627;DHT22;8427;52.204;7.202;2023-06-22T08:10:16;24.80;61.60
16627;DHT22;8427;52.204;7.202;2023-06-22T08:12:45;24.70;60.20
16627;DHT22;8427;52.204;7.202;2023-06-22T08:15:14;24.80;60.80
16627;DHT22;8427;52.204;7.202;2023-06-22T08:17:42;24.90;63.80
16627;DHT22;8427;52.204;7.202;2023-06-22T08:20:11;25.00;62.00
16627;DHT22;8427;52.204;7.202;2023-06-22T08:22:40;24.70;58.80
16627;DHT22;8427;52.204;7.202;2023-06-22T08:25:09;24.80;59.20
16627;DHT22;8427;52.204;7.202;2023-06-22T08:27:38;24.70;59.90
16627;DHT22;8427;52.204;7.202;2023-06-22T08:30:09;24.50;59.50
16627;DHT22;8427;52.204;7.202;2023-06-22T08:32:38;24.60;59.80
16627;DHT22;8427;52.204;7.202;2023-06-22T08:35:07;24.50;62.00
16627;DHT22;8427;52.204;7.202;2023-06-22T08:37:36;24.50;60.10
16627;DHT22;8427;52.204;7.202;2023-06-22T08:40:08;24.30;61.50
16627;DHT22;8427;52.204;7.202;2023-06-22T08:42:37;24.30;60.80
16627;DHT22;8427;52.204;7.202;2023-06-22T08:45:08;24.20;60.80
16627;DHT22;8427;52.204;7.202;2023-06-22T08:47:36;24.20;61.40
16627;DHT22;8427;52.204;7.202;2023-06-22T08:50:05;24.10;61.10
16627;DHT22;8427;52.204;7.202;2023-06-22T08:52:35;24.20;61.10
16627;DHT22;8427;52.204;7.202;2023-06-22T08:55:04;24.20;62.10
16627;DHT22;8427;52.204;7.202;2023-06-22T08:57:32;24.20;62.00
16627;DHT22;8427;52.204;7.202;2023-06-22T09:00:00;24.40;60.80
16627;DHT22;8427;52.204;7.202;2023-06-22T09:02:30;24.50;62.20
16627;DHT22;8427;52.204;7.202;2023-06-22T09:04:59;24.60;61.00
16627;DHT22;8427;52.204;7.202;2023-06-22T09:07:28;24.70;59.40
16627;DHT22;8427;52.204;7.202;2023-06-22T09:09:56;24.90;59.60
16627;DHT22;8427;52.204;7.202;2023-06-22T09:12:24;25.10;58.60
16627;DHT22;8427;52.204;7.202;2023-06-22T09:14:54;25.20;57.80
16627;DHT22;8427;52.204;7.202;2023-06-22T09:17:22;25.20;57.60
16627;DHT22;8427;52.204;7.202;2023-06-22T09:19:51;25.30;59.40
16627;DHT22;8427;52.204;7.202;2023-06-22T09:22:20;25.30;57.50
16627;DHT22;8427;52.204;7.202;2023-06-22T09:24:48;25.50;58.60
16627;DHT22;8427;52.204;7.202;2023-06-22T09:27:16;25.60;56.80
16627;DHT22;8427;52.204;7.202;2023-06-22T09:29:44;25.80;55.90
16627;DHT22;8427;52.204;7.202;2023-06-22T09:32:12;25.80;56.10
16627;DHT22;8427;52.204;7.202;2023-06-22T09:34:41;26.00;56.20
16627;DHT22;8427;52.204;7.202;2023-06-22T09:37:10;25.90;55.40
16627;DHT22;8427;52.204;7.202;2023-06-22T09:39:38;25.80;55.50
16627;DHT22;8427;52.204;7.202;2023-06-22T09:42:06;25.70;55.70
16627;DHT22;8427;52.204;7.202;2023-06-22T09:44:34;25.80;59.10
16627;DHT22;8427;52.204;7.202;2023-06-22T09:47:03;25.80;56.00
16627;DHT22;8427;52.204;7.202;2023-06-22T09:49:31;25.80;56.60
16627;DHT22;8427;52.204;7.202;2023-06-22T09:52:15;25.80;57.10
16627;DHT22;8427;52.204;7.202;2023-06-22T09:54:43;25.70;57.50
16627;DHT22;8427;52.204;7.202;2023-06-22T09:57:11;25.80;57.60
16627;DHT22;8427;52.204;7.202;2023-06-22T09:59:39;25.90;57.70
16627;DHT22;8427;52.204;7.202;2023-06-22T10:02:07;25.90;56.40
16627;DHT22;8427;52.204;7.202;2023-06-22T10:04:36;25.80;57.40
16627;DHT22;8427;52.204;7.202;2023-06-22T10:07:05;25.90;57.20
16627;DHT22;8427;52.204;7.202;2023-06-22T10:09:34;25.70;57.20
16627;DHT22;8427;52.204;7.202;2023-06-22T10:12:02;25.80;57.80
16627;DHT22;8427;52.204;7.202;2023-06-22T10:14:31;25.80;58.80
16627;DHT22;8427;52.204;7.202;2023-06-22T10:16:59;25.80;57.20
16627;DHT22;8427;52.204;7.202;2023-06-22T10:19:27;25.90;57.30
16627;DHT22;8427;52.204;7.202;2023-06-22T10:21:55;26.10;59.20
16627;DHT22;8427;52.204;7.202;2023-06-22T10:24:23;26.10;58.70
16627;DHT22;8427;52.204;7.202;2023-06-22T10:26:52;26.20;57.10
16627;DHT22;8427;52.204;7.202;2023-06-22T10:29:20;26.30;58.20
16627;DHT22;8427;52.204;7.202;2023-06-22T10:31:48;26.30;56.90
16627;DHT22;8427;52.204;7.202;2023-06-22T10:34:16;26.20;58.40
16627;DHT22;8427;52.204;7.202;2023-06-22T10:36:44;26.20;57.00
16627;DHT22;8427;52.204;7.202;2023-06-22T10:39:15;25.90;56.00
16627;DHT22;8427;52.204;7.202;2023-06-22T10:41:43;25.90;58.00
16627;DHT22;8427;52.204;7.202;2023-06-22T10:44:12;25.90;58.40
16627;DHT22;8427;52.204;7.202;2023-06-22T10:46:41;26.00;61.50
16627;DHT22;8427;52.204;7.202;2023-06-22T10:49:09;26.00;61.10
16627;DHT22;8427;52.204;7.202;2023-06-22T10:51:37;25.90;60.60
16627;DHT22;8427;52.204;7.202;2023-06-22T10:54:05;25.90;61.50
16627;DHT22;8427;52.204;7.202;2023-06-22T10:56:33;25.90;63.10
16627;DHT22;8427;52.204;7.202;2023-06-22T10:59:01;25.90;59.70
16627;DHT22;8427;52.204;7.202;2023-06-22T11:01:31;25.80;58.50
16627;DHT22;8427;52.204;7.202;2023-06-22T11:04:02;25.50;58.40
16627;DHT22;8427;52.204;7.202;2023-06-22T11:06:31;25.30;61.20
16627;DHT22;8427;52.204;7.202;2023-06-22T11:08:59;25.30;60.60
16627;DHT22;8427;52.204;7.202;2023-06-22T11:11:48;25.20;61.60
16627;DHT22;8427;52.204;7.202;2023-06-22T11:14:16;25.20;60.60
16627;DHT22;8427;52.204;7.202;2023-06-22T11:16:45;25.00;61.00
16627;DHT22;8427;52.204;7.202;2023-06-22T11:19:14;25.10;63.90
16627;DHT22;8427;52.204;7.202;2023-06-22T11:21:41;25.00;62.00
16627;DHT22;8427;52.204;7.202;2023-06-22T11:24:13;25.00;62.40
16627;DHT22;8427;52.204;7.202;2023-06-22T11:26:42;25.10;62.70
16627;DHT22;8427;52.204;7.202;2023-06-22T11:29:10;25.20;62.00
16627;DHT22;8427;52.204;7.202;2023-06-22T11:31:59;25.40;62.00
16627;DHT22;8427;52.204;7.202;2023-06-22T11:34:27;25.40;61.90
16627;DHT22;8427;52.204;7.202;2023-06-22T11:36:55;25.50;62.50
16627;DHT22;8427;52.204;7.202;2023-06-22T11:39:23;25.60;64.10
16627;DHT22;8427;52.204;7.202;2023-06-22T11:42:07;25.50;62.10
16627;DHT22;8427;52.204;7.202;2023-06-22T11:44:37;25.30;63.50
16627;DHT22;8427;52.204;7.202;2023-06-22T11:47:06;25.40;64.10
16627;DHT22;8427;52.204;7.202;2023-06-22T11:49:37;25.30;62.10
16627;DHT22;8427;52.204;7.202;2023-06-22T11:52:06;25.30;63.00
16627;DHT22;8427;52.204;7.202;2023-06-22T11:54:34;25.20;63.80
16627;DHT22;8427;52.204;7.202;2023-06-22T11:57:02;25.40;64.50
16627;DHT22;8427;52.204;7.202;2023-06-22T11:59:30;25.30;65.40
16627;DHT22;8427;52.204;7.202;2023-06-22T12:01:58;25.20;64.80
16627;DHT22;8427;52.204;7.202;2023-06-22T12:04:28;25.10;65.50
16627;DHT22;8427;52.204;7.202;2023-06-22T12:06:56;24.90;65.20
16627;DHT22;8427;52.204;7.202;2023-06-22T12:09:25;25.00;66.20
16627;DHT22;8427;52.204;7.202;2023-06-22T12:11:53;24.90;63.70
16627;DHT22;8427;52.204;7.202;2023-06-22T12:14:23;24.80;66.70
16627;DHT22;8427;52.204;7.202;2023-06-22T12:16:51;24.60;66.00
16627;DHT22;8427;52.204;7.202;2023-06-22T12:19:19;24.50;67.80
16627;DHT22;8427;52.204;7.202;2023-06-22T12:21:48;24.50;67.90
16627;DHT22;8427;52.204;7.202;2023-06-22T12:24:17;24.40;65.80
16627;DHT22;8427;52.204;7.202;2023-06-22T12:26:44;24.30;66.90
16627;DHT22;8427;52.204;7.202;2023-06-22T12:29:12;24.20;66.60
16627;DHT22;8427;52.204;7.202;2023-06-22T12:31:40;24.30;66.40
16627;DHT22;8427;52.204;7.202;2023-06-22T12:34:09;24.10;67.20
16627;DHT22;8427;52.204;7.202;2023-06-22T12:36:37;24.10;67.40
16627;DHT22;8427;52.204;7.202;2023-06-22T12:39:06;24.00;66.20
16627;DHT22;8427;52.204;7.202;2023-06-22T12:41:34;24.00;67.60
16627;DHT22;8427;52.204;7.202;2023-06-22T12:44:02;23.90;68.50
16627;DHT22;8427;52.204;7.202;2023-06-22T12:46:30;23.80;68.00
16627;DHT22;8427;52.204;7.202;2023-06-22T12:49:04;23.70;67.80
16627;DHT22;8427;52.204;7.202;2023-06-22T12:51:32;23.80;71.70
16627;DHT22;8427;52.204;7.202;2023-06-22T12:54:00;23.60;69.40
16627;DHT22;8427;52.204;7.202;2023-06-22T12:56:30;23.60;70.50
16627;DHT22;8427;52.204;7.202;2023-06-22T12:58:57;23.50;70.00
16627;DHT22;8427;52.204;7.202;2023-06-22T13:01:28;23.50;70.50
16627;DHT22;8427;52.204;7.202;2023-06-22T13:03:57;23.50;72.20
16627;DHT22;8427;52.204;7.202;2023-06-22T13:06:25;23.30;72.50
16627;DHT22;8427;52.204;7.202;2023-06-22T13:08:54;23.20;72.90
16627;DHT22;8427;52.204;7.202;2023-06-22T13:11:43;23.00;74.70
16627;DHT22;8427;52.204;7.202;2023-06-22T13:14:11;22.90;77.30
16627;DHT22;8427;52.204;7.202;2023-06-22T13:16:39;22.90;79.20
16627;DHT22;8427;52.204;7.202;2023-06-22T13:19:07;22.70;79.10
16627;DHT22;8427;52.204;7.202;2023-06-22T13:21:36;22.70;80.50
16627;DHT22;8427;52.204;7.202;2023-06-22T13:24:05;22.60;81.20
16627;DHT22;8427;52.204;7.202;2023-06-22T13:26:34;22.50;81.30
16627;DHT22;8427;52.204;7.202;2023-06-22T13:29:03;22.50;82.10
16627;DHT22;8427;52.204;7.202;2023-06-22T13:31:31;22.40;81.80
16627;DHT22;8427;52.204;7.202;2023-06-22T13:33:59;22.30;82.60
16627;DHT22;8427;52.204;7.202;2023-06-22T13:36:27;22.20;83.20
16627;DHT22;8427;52.204;7.202;2023-06-22T13:38:57;22.30;83.90
16627;DHT22;8427;52.204;7.202;2023-06-22T13:41:25;22.30;84.50
16627;DHT22;8427;52.204;7.202;2023-06-22T13:43:53;22.20;83.90
16627;DHT22;8427;52.204;7.202;2023-06-22T13:46:23;22.00;84.40
16627;DHT22;8427;52.204;7.202;2023-06-22T13:48:51;22.10;84.90
16627;DHT22;8427;52.204;7.202;2023-06-22T13:51:22;22.10;84.80
16627;DHT22;8427;52.204;7.202;2023-06-22T13:53:50;22.10;84.90
16627;DHT22;8427;52.204;7.202;2023-06-22T13:56:18;22.10;85.00
16627;DHT22;8427;52.204;7.202;2023-06-22T13:58:46;22.10;85.20
16627;DHT22;8427;52.204;7.202;2023-06-22T14:01:14;22.20;85.60
16627;DHT22;8427;52.204;7.202;2023-06-22T14:03:45;22.20;85.50
16627;DHT22;8427;52.204;7.202;2023-06-22T14:06:13;22.40;85.60
16627;DHT22;8427;52.204;7.202;2023-06-22T14:08:41;22.40;84.60
16627;DHT22;8427;52.204;7.202;2023-06-22T14:11:09;22.50;86.00
16627;DHT22;8427;52.204;7.202;2023-06-22T14:13:38;22.70;84.90
16627;DHT22;8427;52.204;7.202;2023-06-22T14:16:08;22.80;82.90
16627;DHT22;8427;52.204;7.202;2023-06-22T14:18:36;23.10;82.90
16627;DHT22;8427;52.204;7.202;2023-06-22T14:21:07;23.50;83.00
16627;DHT22;8427;52.204;7.202;2023-06-22T14:23:35;23.70;80.10
16627;DHT22;8427;52.204;7.202;2023-06-22T14:26:04;23.90;81.00
16627;DHT22;8427;52.204;7.202;2023-06-22T14:28:32;24.20;78.60
16627;DHT22;8427;52.204;7.202;2023-06-22T14:31:00;24.40;79.70
16627;DHT22;8427;52.204;7.202;2023-06-22T14:33:28;24.60;78.30
16627;DHT22;8427;52.204;7.202;2023-06-22T14:35:56;24.60;76.20
16627;DHT22;8427;52.204;7.202;2023-06-22T14:38:25;24.50;77.90
16627;DHT22;8427;52.204;7.202;2023-06-22T14:40:54;24.60;78.30
16627;DHT22;8427;52.204;7.202;2023-06-22T14:43:38;24.50;77.20
16627;DHT22;8427;52.204;7.202;2023-06-22T14:46:10;24.40;77.80
16627;DHT22;8427;52.204;7.202;2023-06-22T14:48:38;24.30;76.20
16627;DHT22;8427;52.204;7.202;2023-06-22T14:51:07;24.30;76.70
16627;DHT22;8427;52.204;7.202;2023-06-22T14:57:26;24.40;75.50
16627;DHT22;8427;52.204;7.202;2023-06-22T14:59:54;24.40;74.10
16627;DHT22;8427;52.204;7.202;2023-06-22T15:02:22;24.30;76.70
16627;DHT22;8427;52.204;7.202;2023-06-22T15:04:50;24.20;77.90
16627;DHT22;8427;52.204;7.202;2023-06-22T15:07:19;24.10;78.90
16627;DHT22;8427;52.204;7.202;2023-06-22T15:09:47;24.10;79.40
16627;DHT22;8427;52.204;7.202;2023-06-22T15:12:15;24.30;78.90
16627;DHT22;8427;52.204;7.202;2023-06-22T15:14:45;24.50;78.10
16627;DHT22;8427;52.204;7.202;2023-06-22T15:17:13;24.60;76.20
16627;DHT22;8427;52.204;7.202;2023-06-22T15:19:42;24.40;74.40
16627;DHT22;8427;52.204;7.202;2023-06-22T15:22:11;24.30;76.30
16627;DHT22;8427;52.204;7.202;2023-06-22T15:24:39;24.20;76.30
16627;DHT22;8427;52.204;7.202;2023-06-22T15:27:07;24.20;77.00
16627;DHT22;8427;52.204;7.202;2023-06-22T15:29:35;24.00;74.00
16627;DHT22;8427;52.204;7.202;2023-06-22T15:32:06;24.00;75.40
16627;DHT22;8427;52.204;7.202;2023-06-22T15:34:34;23.90;76.20
16627;DHT22;8427;52.204;7.202;2023-06-22T15:37:02;24.30;75.50
16627;DHT22;8427;52.204;7.202;2023-06-22T15:39:30;24.80;75.00
16627;DHT22;8427;52.204;7.202;2023-06-22T16:06:05;22.70;80.20
16627;DHT22;8427;52.204;7.202;2023-06-22T16:08:32;22.60;78.90
16627;DHT22;8427;52.204;7.202;2023-06-22T16:11:00;22.50;78.80
16627;DHT22;8427;52.204;7.202;2023-06-22T16:13:28;22.60;79.20
16627;DHT22;8427;52.204;7.202;2023-06-22T16:15:56;22.50;78.00
16627;DHT22;8427;52.204;7.202;2023-06-22T16:18:24;22.60;80.40
16627;DHT22;8427;52.204;7.202;2023-06-22T16:20:52;22.40;80.70
16627;DHT22;8427;52.204;7.202;2023-06-22T16:23:21;22.30;80.20
16627;DHT22;8427;52.204;7.202;2023-06-22T16:25:49;22.40;81.30
16627;DHT22;8427;52.204;7.202;2023-06-22T16:28:17;22.30;81.60
16627;DHT22;8427;52.204;7.202;2023-06-22T16:30:44;22.20;81.90
16627;DHT22;8427;52.204;7.202;2023-06-22T16:33:12;22.10;82.10
16627;DHT22;8427;52.204;7.202;2023-06-22T16:35:40;22.00;81.80
16627;DHT22;8427;52.204;7.202;2023-06-22T16:38:08;21.80;82.00
16627;DHT22;8427;52.204;7.202;2023-06-22T16:40:38;21.80;82.20
16627;DHT22;8427;52.204;7.202;2023-06-22T16:43:06;21.70;83.10
16627;DHT22;8427;52.204;7.202;2023-06-22T16:45:36;21.70;83.00
16627;DHT22;8427;52.204;7.202;2023-06-22T16:48:05;21.70;82.90
16627;DHT22;8427;52.204;7.202;2023-06-22T16:50:33;21.70;83.00
16627;DHT22;8427;52.204;7.202;2023-06-22T16:53:01;21.70;82.00
16627;DHT22;8427;52.204;7.202;2023-06-22T16:55:29;21.80;82.10
16627;DHT22;8427;52.204;7.202;2023-06-22T16:58:00;21.80;80.90
16627;DHT22;8427;52.204;7.202;2023-06-22T17:00:30;21.80;81.10
16627;DHT22;8427;52.204;7.202;2023-06-22T17:03:03;21.90;80.00
16627;DHT22;8427;52.204;7.202;2023-06-22T17:05:32;21.90;79.60
16627;DHT22;8427;52.204;7.202;2023-06-22T17:08:02;22.00;80.40
16627;DHT22;8427;52.204;7.202;2023-06-22T17:10:32;21.80;81.20
16627;DHT22;8427;52.204;7.202;2023-06-22T17:13:02;21.80;82.60
16627;DHT22;8427;52.204;7.202;2023-06-22T17:15:31;21.60;84.00
16627;DHT22;8427;52.204;7.202;2023-06-22T17:18:04;21.60;84.50